Anzahl Datensätze: 282
min. Temperatur: 9.6 °C
max. Temperatur: 24.6 °C
max. Windgeschwindigkeit: 30.6 km/h
Niederschlagsumme: 0.6 mm
| Datum |
Zeit |
Temp °C |
Feuchte % |
Taupunkt °C |
Luftdruck hPa |
Wind km/h |
Windrichtung |
Strahlung w/m² |
Niederschlag mm |
|---|---|---|---|---|---|---|---|---|---|
| 17.07.2025 | 00:03 | 14.3 | 81 | 11.1 | 1017.5 | 0.0 | OSO | 0 | 0.6 |
| 17.07.2025 | 00:09 | 14.1 | 81 | 10.9 | 1017.6 | 1.4 | OSO | 0 | 0.0 |
| 17.07.2025 | 00:12 | 14.0 | 82 | 11.0 | 1017.5 | 1.4 | OSO | 0 | 0.0 |
| 17.07.2025 | 00:18 | 13.8 | 82 | 10.8 | 1017.6 | 0.0 | OSO | 0 | 0.0 |
| 17.07.2025 | 00:24 | 13.7 | 82 | 10.7 | 1017.7 | 0.0 | OSO | 0 | 0.0 |
| 17.07.2025 | 00:27 | 13.7 | 83 | 10.9 | 1017.7 | 0.0 | OSO | 0 | 0.0 |
| 17.07.2025 | 00:33 | 13.6 | 83 | 10.8 | 1017.7 | 0.0 | OSO | 0 | 0.0 |
| 17.07.2025 | 00:39 | 13.4 | 83 | 10.6 | 1017.8 | 1.4 | OSO | 0 | 0.0 |
| 17.07.2025 | 00:42 | 13.3 | 83 | 10.5 | 1017.9 | 1.4 | OSO | 0 | 0.0 |
| 17.07.2025 | 00:48 | 13.2 | 84 | 10.6 | 1018.0 | 1.4 | OSO | 0 | 0.0 |
| 17.07.2025 | 00:54 | 13.1 | 84 | 10.5 | 1018.0 | 1.4 | OSO | 0 | 0.0 |
| 17.07.2025 | 00:57 | 13.0 | 84 | 10.4 | 1018.0 | 1.4 | OSO | 0 | 0.0 |
| 17.07.2025 | 01:03 | 12.9 | 84 | 10.3 | 1018.1 | 0.0 | OSO | 0 | 0.0 |
| 17.07.2025 | 01:09 | 12.8 | 85 | 10.3 | 1018.2 | 1.4 | OSO | 0 | 0.0 |
| 17.07.2025 | 01:12 | 12.8 | 85 | 10.3 | 1018.2 | 1.4 | OSO | 0 | 0.0 |
| 17.07.2025 | 01:18 | 12.7 | 85 | 10.2 | 1018.1 | 1.4 | OSO | 0 | 0.0 |
| 17.07.2025 | 01:24 | 12.6 | 85 | 10.1 | 1018.1 | 0.0 | OSO | 0 | 0.0 |
| 17.07.2025 | 01:27 | 12.5 | 85 | 10.0 | 1018.2 | 0.0 | OSO | 0 | 0.0 |
| 17.07.2025 | 01:33 | 12.4 | 86 | 10.1 | 1018.2 | 0.0 | OSO | 0 | 0.0 |
| 17.07.2025 | 01:39 | 12.3 | 86 | 10.0 | 1018.2 | 0.0 | OSO | 0 | 0.0 |
| 17.07.2025 | 01:42 | 12.3 | 86 | 10.0 | 1018.3 | 0.0 | OSO | 0 | 0.0 |
| 17.07.2025 | 01:48 | 12.3 | 86 | 10.0 | 1018.3 | 0.0 | OSO | 0 | 0.0 |
| 17.07.2025 | 01:54 | 12.2 | 86 | 9.9 | 1018.3 | 1.4 | OSO | 0 | 0.0 |
| 17.07.2025 | 01:57 | 12.1 | 86 | 9.8 | 1018.3 | 1.4 | OSO | 0 | 0.0 |
| 17.07.2025 | 02:03 | 12.0 | 86 | 9.7 | 1018.2 | 1.4 | OSO | 0 | 0.0 |
| 17.07.2025 | 02:09 | 11.9 | 86 | 9.6 | 1018.2 | 0.0 | OSO | 0 | 0.0 |
| 17.07.2025 | 02:12 | 11.9 | 86 | 9.6 | 1018.2 | 0.0 | OSO | 0 | 0.0 |
| 17.07.2025 | 02:18 | 11.8 | 86 | 9.5 | 1018.2 | 1.4 | OSO | 0 | 0.0 |
| 17.07.2025 | 02:24 | 11.7 | 86 | 9.4 | 1018.2 | 1.4 | OSO | 0 | 0.0 |
| 17.07.2025 | 02:27 | 11.7 | 86 | 9.4 | 1018.2 | 0.0 | OSO | 0 | 0.0 |
| 17.07.2025 | 02:33 | 11.6 | 87 | 9.5 | 1018.2 | 0.0 | OSO | 0 | 0.0 |
| 17.07.2025 | 02:39 | 11.6 | 87 | 9.5 | 1018.1 | 1.4 | OSO | 0 | 0.0 |
| 17.07.2025 | 02:42 | 11.5 | 87 | 9.4 | 1018.1 | 1.4 | OSO | 0 | 0.0 |
| 17.07.2025 | 02:48 | 11.4 | 87 | 9.3 | 1018.2 | 0.0 | OSO | 0 | 0.0 |
| 17.07.2025 | 02:54 | 11.3 | 87 | 9.2 | 1018.2 | 0.0 | OSO | 0 | 0.0 |
| 17.07.2025 | 02:57 | 11.3 | 87 | 9.2 | 1018.2 | 1.4 | OSO | 0 | 0.0 |
| 17.07.2025 | 03:03 | 11.2 | 87 | 9.1 | 1018.2 | 0.0 | OSO | 0 | 0.0 |
| 17.07.2025 | 03:09 | 11.2 | 87 | 9.1 | 1018.3 | 0.0 | OSO | 0 | 0.0 |
| 17.07.2025 | 03:12 | 11.2 | 87 | 9.1 | 1018.2 | 0.0 | OSO | 0 | 0.0 |
| 17.07.2025 | 03:18 | 11.1 | 87 | 9.0 | 1018.2 | 0.0 | OSO | 0 | 0.0 |
| 17.07.2025 | 03:24 | 11.1 | 87 | 9.0 | 1018.2 | 1.4 | OSO | 0 | 0.0 |
| 17.07.2025 | 03:27 | 11.0 | 87 | 8.9 | 1018.3 | 1.4 | OSO | 0 | 0.0 |
| 17.07.2025 | 03:33 | 10.9 | 87 | 8.8 | 1018.3 | 0.0 | OSO | 0 | 0.0 |
| 17.07.2025 | 03:39 | 10.9 | 87 | 8.8 | 1018.4 | 0.0 | OSO | 0 | 0.0 |
| 17.07.2025 | 03:42 | 10.8 | 87 | 8.7 | 1018.4 | 0.0 | OSO | 0 | 0.0 |
| 17.07.2025 | 03:48 | 10.8 | 87 | 8.7 | 1018.3 | 0.0 | OSO | 0 | 0.0 |
| 17.07.2025 | 03:54 | 10.7 | 87 | 8.6 | 1018.3 | 0.0 | OSO | 0 | 0.0 |
| 17.07.2025 | 03:57 | 10.7 | 87 | 8.6 | 1018.4 | 0.0 | OSO | 0 | 0.0 |
| 17.07.2025 | 04:03 | 10.7 | 87 | 8.6 | 1018.5 | 0.0 | OSO | 0 | 0.0 |
| 17.07.2025 | 04:09 | 10.6 | 87 | 8.5 | 1018.5 | 0.0 | OSO | 0 | 0.0 |
| 17.07.2025 | 04:12 | 10.6 | 87 | 8.5 | 1018.4 | 0.0 | OSO | 0 | 0.0 |
| 17.07.2025 | 04:18 | 10.5 | 88 | 8.6 | 1018.4 | 0.0 | OSO | 0 | 0.0 |
| 17.07.2025 | 04:24 | 10.4 | 88 | 8.5 | 1018.4 | 0.0 | OSO | 0 | 0.0 |
| 17.07.2025 | 04:27 | 10.4 | 88 | 8.5 | 1018.4 | 0.0 | OSO | 0 | 0.0 |
| 17.07.2025 | 04:33 | 10.4 | 87 | 8.3 | 1018.3 | 0.0 | OSO | 0 | 0.0 |
| 17.07.2025 | 04:39 | 10.3 | 87 | 8.2 | 1018.4 | 0.0 | OSO | 0 | 0.0 |
| 17.07.2025 | 04:42 | 10.3 | 87 | 8.2 | 1018.5 | 0.0 | OSO | 0 | 0.0 |
| 17.07.2025 | 04:48 | 10.2 | 88 | 8.3 | 1018.5 | 1.4 | OSO | 0 | 0.0 |
| 17.07.2025 | 04:54 | 10.2 | 88 | 8.3 | 1018.4 | 0.0 | OSO | 0 | 0.0 |
| 17.07.2025 | 04:57 | 10.2 | 88 | 8.3 | 1018.5 | 0.0 | OSO | 0 | 0.0 |
| 17.07.2025 | 05:03 | 10.1 | 88 | 8.2 | 1018.4 | 0.0 | OSO | 0 | 0.0 |
| 17.07.2025 | 05:09 | 10.0 | 88 | 8.1 | 1018.5 | 1.4 | OSO | 0 | 0.0 |
| 17.07.2025 | 05:12 | 10.0 | 88 | 8.1 | 1018.5 | 0.0 | OSO | 0 | 0.0 |
| 17.07.2025 | 05:18 | 9.9 | 88 | 8.0 | 1018.5 | 0.0 | OSO | 0 | 0.0 |
| 17.07.2025 | 05:24 | 9.9 | 88 | 8.0 | 1018.6 | 0.0 | OSO | 0 | 0.0 |
| 17.07.2025 | 05:27 | 9.9 | 88 | 8.0 | 1018.6 | 1.4 | OSO | 0 | 0.0 |
| 17.07.2025 | 05:33 | 9.8 | 88 | 7.9 | 1018.5 | 0.0 | OSO | 0 | 0.0 |
| 17.07.2025 | 05:39 | 9.8 | 88 | 7.9 | 1018.5 | 0.0 | SSO | 0 | 0.0 |
| 17.07.2025 | 05:42 | 9.8 | 88 | 7.9 | 1018.5 | 0.0 | SSO | 0 | 0.0 |
| 17.07.2025 | 05:48 | 9.8 | 88 | 7.9 | 1018.5 | 0.0 | SSO | 0 | 0.0 |
| 17.07.2025 | 05:54 | 9.8 | 88 | 7.9 | 1018.5 | 0.0 | SSO | 5 | 0.0 |
| 17.07.2025 | 05:57 | 9.8 | 88 | 7.9 | 1018.5 | 0.0 | SSO | 5 | 0.0 |
| 17.07.2025 | 06:03 | 9.7 | 88 | 7.8 | 1018.5 | 0.0 | SSO | 7 | 0.0 |
| 17.07.2025 | 06:09 | 9.7 | 88 | 7.8 | 1018.6 | 1.4 | SSO | 9 | 0.0 |
| 17.07.2025 | 06:12 | 9.6 | 88 | 7.7 | 1018.6 | 1.4 | SSO | 11 | 0.0 |
| 17.07.2025 | 06:18 | 9.6 | 88 | 7.7 | 1018.6 | 1.4 | SSO | 12 | 0.0 |
| 17.07.2025 | 06:24 | 9.6 | 88 | 7.7 | 1018.7 | 0.0 | SSO | 12 | 0.0 |
| 17.07.2025 | 06:27 | 9.6 | 88 | 7.7 | 1018.7 | 0.0 | SSO | 14 | 0.0 |
| 17.07.2025 | 06:33 | 9.7 | 88 | 7.8 | 1018.7 | 1.4 | SSO | 14 | 0.0 |
| 17.07.2025 | 06:39 | 9.7 | 88 | 7.8 | 1018.7 | 0.0 | S | 16 | 0.0 |
| 17.07.2025 | 06:42 | 9.7 | 88 | 7.8 | 1018.7 | 0.0 | SW | 18 | 0.0 |
| 17.07.2025 | 06:48 | 9.8 | 88 | 7.9 | 1018.7 | 1.4 | SSW | 19 | 0.0 |
| 17.07.2025 | 06:54 | 9.8 | 88 | 7.9 | 1018.6 | 1.4 | S | 21 | 0.0 |
| 17.07.2025 | 06:57 | 9.8 | 88 | 7.9 | 1018.6 | 1.4 | S | 21 | 0.0 |
| 17.07.2025 | 07:03 | 9.8 | 88 | 7.9 | 1018.7 | 0.0 | S | 23 | 0.0 |
| 17.07.2025 | 07:09 | 9.9 | 88 | 8.0 | 1018.7 | 0.0 | SSW | 23 | 0.0 |
| 17.07.2025 | 07:12 | 10.0 | 88 | 8.1 | 1018.7 | 0.0 | SSW | 25 | 0.0 |
| 17.07.2025 | 07:18 | 10.1 | 88 | 8.2 | 1018.7 | 0.0 | SSW | 28 | 0.0 |
| 17.07.2025 | 07:24 | 10.2 | 88 | 8.3 | 1018.8 | 0.0 | SSW | 30 | 0.0 |
| 17.07.2025 | 07:27 | 10.2 | 88 | 8.3 | 1018.8 | 0.0 | SSW | 30 | 0.0 |
| 17.07.2025 | 07:33 | 10.4 | 88 | 8.5 | 1018.8 | 0.0 | SSO | 30 | 0.0 |
| 17.07.2025 | 07:39 | 10.6 | 88 | 8.7 | 1018.8 | 0.0 | SSO | 32 | 0.0 |
| 17.07.2025 | 07:42 | 10.7 | 88 | 8.8 | 1018.8 | 0.0 | SSO | 33 | 0.0 |
| 17.07.2025 | 07:48 | 10.9 | 88 | 9.0 | 1018.9 | 0.0 | SSO | 35 | 0.0 |
| 17.07.2025 | 07:54 | 11.2 | 88 | 9.3 | 1019.0 | 0.0 | SSO | 35 | 0.0 |
| 17.07.2025 | 07:57 | 11.3 | 88 | 9.4 | 1019.0 | 0.0 | SSO | 37 | 0.0 |
| 17.07.2025 | 08:03 | 11.5 | 88 | 9.6 | 1019.1 | 0.0 | SSO | 40 | 0.0 |
| 17.07.2025 | 08:09 | 11.8 | 88 | 9.9 | 1019.1 | 0.0 | SSO | 42 | 0.0 |
| 17.07.2025 | 08:12 | 11.9 | 88 | 10.0 | 1019.1 | 0.0 | SSO | 42 | 0.0 |
| 17.07.2025 | 08:18 | 12.2 | 88 | 10.3 | 1019.1 | 0.0 | SSO | 44 | 0.0 |
| 17.07.2025 | 08:24 | 12.4 | 88 | 10.5 | 1019.1 | 0.0 | SSO | 56 | 0.0 |
| 17.07.2025 | 08:27 | 12.6 | 88 | 10.7 | 1019.1 | 0.0 | SSO | 107 | 0.0 |
| 17.07.2025 | 08:33 | 13.1 | 88 | 11.2 | 1019.1 | 0.0 | NO | 153 | 0.0 |
| 17.07.2025 | 08:39 | 13.6 | 88 | 11.6 | 1019.1 | 0.0 | O | 172 | 0.0 |
| 17.07.2025 | 08:42 | 13.8 | 88 | 11.8 | 1019.1 | 0.0 | OSO | 171 | 0.0 |
| 17.07.2025 | 08:48 | 14.2 | 88 | 12.2 | 1019.2 | 1.4 | W | 169 | 0.0 |
| 17.07.2025 | 08:54 | 14.6 | 87 | 12.5 | 1019.2 | 1.4 | OSO | 125 | 0.0 |
| 17.07.2025 | 08:57 | 14.7 | 87 | 12.6 | 1019.2 | 1.4 | OSO | 91 | 0.0 |
| 17.07.2025 | 09:03 | 15.0 | 87 | 12.9 | 1019.2 | 0.0 | OSO | 58 | 0.0 |
| 17.07.2025 | 09:09 | 15.2 | 86 | 12.9 | 1019.2 | 1.4 | SO | 434 | 0.0 |
| 17.07.2025 | 09:12 | 15.3 | 85 | 12.8 | 1019.3 | 3.2 | SO | 448 | 0.0 |
| 17.07.2025 | 09:18 | 15.4 | 84 | 12.7 | 1019.3 | 1.4 | SO | 459 | 0.0 |
| 17.07.2025 | 09:24 | 15.7 | 83 | 12.8 | 1019.2 | 1.4 | SSO | 139 | 0.0 |
| 17.07.2025 | 09:27 | 15.9 | 83 | 13.0 | 1019.3 | 1.4 | SO | 141 | 0.0 |
| 17.07.2025 | 09:33 | 16.4 | 82 | 13.3 | 1019.3 | 3.2 | SO | 612 | 0.0 |
| 17.07.2025 | 09:39 | 17.0 | 80 | 13.5 | 1019.3 | 1.4 | SO | 603 | 0.0 |
| 17.07.2025 | 09:42 | 17.3 | 78 | 13.4 | 1019.3 | 3.2 | W | 633 | 0.0 |
| 17.07.2025 | 09:48 | 17.6 | 76 | 13.3 | 1019.3 | 1.4 | NO | 183 | 0.0 |
| 17.07.2025 | 09:54 | 17.6 | 76 | 13.3 | 1019.3 | 3.2 | NO | 185 | 0.0 |
| 17.07.2025 | 09:57 | 17.4 | 75 | 12.9 | 1019.2 | 3.2 | N | 135 | 0.0 |
| 17.07.2025 | 10:03 | 17.3 | 76 | 13.0 | 1019.2 | 3.2 | SO | 186 | 0.0 |
| 17.07.2025 | 10:09 | 17.5 | 75 | 13.0 | 1019.2 | 1.4 | SW | 666 | 0.0 |
| 17.07.2025 | 10:12 | 17.7 | 74 | 13.0 | 1019.2 | 1.4 | SO | 714 | 0.0 |
| 17.07.2025 | 10:18 | 18.1 | 73 | 13.2 | 1019.1 | 1.4 | SW | 207 | 0.0 |
| 17.07.2025 | 10:24 | 18.3 | 72 | 13.2 | 1019.2 | 1.4 | ONO | 737 | 0.0 |
| 17.07.2025 | 10:27 | 18.5 | 72 | 13.4 | 1019.2 | 1.4 | WSW | 278 | 0.0 |
| 17.07.2025 | 10:33 | 18.9 | 71 | 13.5 | 1019.1 | 1.4 | NNW | 594 | 0.0 |
| 17.07.2025 | 10:39 | 19.0 | 69 | 13.2 | 1019.1 | 3.2 | W | 193 | 0.0 |
| 17.07.2025 | 10:42 | 18.8 | 70 | 13.2 | 1019.1 | 3.2 | SO | 617 | 0.0 |
| 17.07.2025 | 10:48 | 18.8 | 70 | 13.2 | 1019.1 | 4.7 | SO | 721 | 0.0 |
| 17.07.2025 | 10:54 | 19.0 | 69 | 13.2 | 1019.1 | 4.7 | SSO | 777 | 0.0 |
| 17.07.2025 | 10:57 | 18.9 | 69 | 13.1 | 1019.1 | 4.7 | SO | 807 | 0.0 |
| 17.07.2025 | 11:03 | 19.1 | 69 | 13.3 | 1019.0 | 3.2 | W | 359 | 0.0 |
| 17.07.2025 | 11:09 | 18.9 | 70 | 13.3 | 1019.1 | 3.2 | SSO | 163 | 0.0 |
| 17.07.2025 | 11:12 | 18.9 | 70 | 13.3 | 1019.1 | 3.2 | S | 160 | 0.0 |
| 17.07.2025 | 11:18 | 18.7 | 70 | 13.1 | 1019.1 | 3.2 | SO | 183 | 0.0 |
| 17.07.2025 | 11:24 | 18.7 | 71 | 13.3 | 1019.1 | 3.2 | SO | 185 | 0.0 |
| 17.07.2025 | 11:27 | 18.9 | 71 | 13.5 | 1019.0 | 3.2 | O | 782 | 0.0 |
| 17.07.2025 | 11:33 | 19.4 | 68 | 13.3 | 1019.0 | 3.2 | SO | 786 | 0.0 |
| 17.07.2025 | 11:39 | 19.6 | 67 | 13.3 | 1019.0 | 4.7 | NO | 940 | 0.0 |
| 17.07.2025 | 11:42 | 19.5 | 67 | 13.2 | 1019.0 | 4.7 | SSW | 232 | 0.0 |
| 17.07.2025 | 11:48 | 19.5 | 67 | 13.2 | 1019.0 | 6.5 | SSO | 192 | 0.0 |
| 17.07.2025 | 11:54 | 19.6 | 67 | 13.3 | 1018.9 | 6.5 | SSO | 916 | 0.0 |
| 17.07.2025 | 11:57 | 19.9 | 66 | 13.4 | 1018.9 | 4.7 | SO | 909 | 0.0 |
| 17.07.2025 | 12:03 | 20.4 | 65 | 13.6 | 1018.9 | 1.4 | N | 239 | 0.0 |
| 17.07.2025 | 12:09 | 20.4 | 65 | 13.6 | 1018.9 | 3.2 | NNW | 229 | 0.0 |
| 17.07.2025 | 12:12 | 20.4 | 66 | 13.8 | 1018.9 | 3.2 | N | 262 | 0.0 |
| 17.07.2025 | 12:18 | 20.7 | 63 | 13.4 | 1018.8 | 3.2 | SSO | 886 | 0.0 |
| 17.07.2025 | 12:24 | 21.0 | 60 | 12.9 | 1018.9 | 3.2 | NNO | 896 | 0.0 |
| 17.07.2025 | 12:27 | 20.8 | 59 | 12.5 | 1018.9 | 4.7 | SO | 888 | 0.0 |
| 17.07.2025 | 12:33 | 20.8 | 61 | 13.0 | 1018.8 | 4.7 | N | 315 | 0.0 |
| 17.07.2025 | 12:39 | 20.7 | 62 | 13.2 | 1018.8 | 4.7 | N | 896 | 0.0 |
| 17.07.2025 | 12:42 | 20.6 | 62 | 13.1 | 1018.7 | 4.7 | SO | 854 | 0.0 |
| 17.07.2025 | 12:48 | 20.9 | 60 | 12.8 | 1018.7 | 3.2 | SSO | 810 | 0.0 |
| 17.07.2025 | 12:54 | 21.5 | 60 | 13.4 | 1018.6 | 3.2 | SW | 881 | 0.0 |
| 17.07.2025 | 12:57 | 21.7 | 59 | 13.3 | 1018.5 | 3.2 | SSW | 895 | 0.0 |
| 17.07.2025 | 13:03 | 21.7 | 58 | 13.1 | 1018.5 | 3.2 | N | 803 | 0.0 |
| 17.07.2025 | 13:09 | 21.7 | 58 | 13.1 | 1018.4 | 3.2 | SSW | 847 | 0.0 |
| 17.07.2025 | 13:12 | 21.7 | 57 | 12.8 | 1018.4 | 3.2 | SO | 875 | 0.0 |
| 17.07.2025 | 13:18 | 21.8 | 57 | 12.9 | 1018.2 | 4.7 | SO | 821 | 0.0 |
| 17.07.2025 | 13:24 | 21.7 | 58 | 13.1 | 1018.2 | 4.7 | N | 267 | 0.0 |
| 17.07.2025 | 13:27 | 21.8 | 59 | 13.4 | 1018.3 | 3.2 | SW | 281 | 0.0 |
| 17.07.2025 | 13:33 | 21.8 | 58 | 13.2 | 1018.2 | 3.2 | OSO | 861 | 0.0 |
| 17.07.2025 | 13:39 | 22.0 | 58 | 13.4 | 1018.1 | 4.7 | S | 287 | 0.0 |
| 17.07.2025 | 13:42 | 22.0 | 57 | 13.1 | 1018.1 | 6.5 | SSO | 888 | 0.0 |
| 17.07.2025 | 13:48 | 21.9 | 58 | 13.3 | 1018.2 | 6.5 | OSO | 221 | 0.0 |
| 17.07.2025 | 13:54 | 22.1 | 57 | 13.2 | 1018.1 | 4.7 | N | 912 | 0.0 |
| 17.07.2025 | 13:57 | 22.2 | 56 | 13.0 | 1018.1 | 4.7 | N | 888 | 0.0 |
| 17.07.2025 | 14:03 | 22.2 | 56 | 13.0 | 1017.9 | 4.7 | SO | 895 | 0.0 |
| 17.07.2025 | 14:09 | 22.8 | 55 | 13.3 | 1017.8 | 4.7 | SO | 879 | 0.0 |
| 17.07.2025 | 14:12 | 22.9 | 56 | 13.7 | 1017.8 | 6.5 | SSO | 856 | 0.0 |
| 17.07.2025 | 14:18 | 23.3 | 53 | 13.2 | 1017.9 | 4.7 | SW | 826 | 0.0 |
| 17.07.2025 | 14:24 | 23.2 | 52 | 12.8 | 1017.7 | 3.2 | N | 849 | 0.0 |
| 17.07.2025 | 14:27 | 23.1 | 53 | 13.0 | 1017.7 | 4.7 | NW | 849 | 0.0 |
| 17.07.2025 | 14:33 | 23.1 | 53 | 13.0 | 1017.6 | 4.7 | NNW | 875 | 0.0 |
| 17.07.2025 | 14:39 | 23.3 | 51 | 12.6 | 1017.7 | 3.2 | S | 209 | 0.0 |
| 17.07.2025 | 14:42 | 23.3 | 52 | 12.9 | 1017.7 | 3.2 | SSW | 332 | 0.0 |
| 17.07.2025 | 14:48 | 23.1 | 53 | 13.0 | 1017.7 | 4.7 | OSO | 833 | 0.0 |
| 17.07.2025 | 14:54 | 23.1 | 53 | 13.0 | 1017.7 | 4.7 | SSO | 174 | 0.0 |
| 17.07.2025 | 14:57 | 23.1 | 55 | 13.6 | 1017.6 | 4.7 | S | 809 | 0.0 |
| 17.07.2025 | 15:03 | 23.2 | 53 | 13.1 | 1017.6 | 4.7 | S | 243 | 0.0 |
| 17.07.2025 | 15:09 | 22.8 | 55 | 13.3 | 1017.7 | 6.5 | NO | 179 | 0.0 |
| 17.07.2025 | 15:12 | 22.7 | 56 | 13.5 | 1017.7 | 4.7 | SW | 197 | 0.0 |
| 17.07.2025 | 15:18 | 23.0 | 56 | 13.7 | 1017.6 | 4.7 | SO | 763 | 0.0 |
| 17.07.2025 | 15:24 | 23.4 | 55 | 13.8 | 1017.5 | 4.7 | S | 759 | 0.0 |
| 17.07.2025 | 15:27 | 23.5 | 54 | 13.7 | 1017.5 | 4.7 | SO | 782 | 0.0 |
| 17.07.2025 | 15:33 | 23.2 | 54 | 13.4 | 1017.5 | 6.5 | SSO | 220 | 0.0 |
| 17.07.2025 | 15:39 | 23.3 | 54 | 13.5 | 1017.5 | 7.9 | SW | 731 | 0.0 |
| 17.07.2025 | 15:42 | 23.6 | 53 | 13.5 | 1017.5 | 7.9 | NNO | 714 | 0.0 |
| 17.07.2025 | 15:48 | 23.8 | 53 | 13.6 | 1017.6 | 4.7 | NNO | 513 | 0.0 |
| 17.07.2025 | 15:54 | 24.0 | 52 | 13.5 | 1017.6 | 3.2 | N | 462 | 0.0 |
| 17.07.2025 | 15:57 | 23.8 | 52 | 13.4 | 1017.6 | 4.7 | N | 186 | 0.0 |
| 17.07.2025 | 16:03 | 23.7 | 53 | 13.6 | 1017.6 | 4.7 | N | 638 | 0.0 |
| 17.07.2025 | 16:09 | 24.1 | 52 | 13.6 | 1017.6 | 4.7 | W | 680 | 0.0 |
| 17.07.2025 | 16:12 | 24.2 | 52 | 13.7 | 1017.5 | 4.7 | SSO | 605 | 0.0 |
| 17.07.2025 | 16:18 | 24.2 | 52 | 13.7 | 1017.5 | 6.5 | W | 712 | 0.0 |
| 17.07.2025 | 16:24 | 24.3 | 52 | 13.8 | 1017.5 | 6.5 | W | 636 | 0.0 |
| 17.07.2025 | 16:27 | 24.4 | 52 | 13.9 | 1017.4 | 4.7 | W | 564 | 0.0 |
| 17.07.2025 | 16:33 | 24.5 | 51 | 13.7 | 1017.3 | 3.2 | SW | 494 | 0.0 |
| 17.07.2025 | 16:39 | 24.4 | 52 | 13.9 | 1017.3 | 4.7 | N | 519 | 0.0 |
| 17.07.2025 | 16:42 | 24.4 | 52 | 13.9 | 1017.3 | 4.7 | NNO | 427 | 0.0 |
| 17.07.2025 | 16:48 | 24.2 | 51 | 13.4 | 1017.2 | 4.7 | SSO | 559 | 0.0 |
| 17.07.2025 | 16:54 | 24.3 | 52 | 13.8 | 1017.2 | 6.5 | SSW | 578 | 0.0 |
| 17.07.2025 | 16:57 | 24.6 | 52 | 14.1 | 1017.2 | 4.7 | SSO | 490 | 0.0 |
| 17.07.2025 | 17:03 | 24.2 | 50 | 13.1 | 1017.1 | 4.7 | SO | 139 | 0.0 |
| 17.07.2025 | 17:09 | 23.9 | 51 | 13.1 | 1017.1 | 3.2 | O | 455 | 0.0 |
| 17.07.2025 | 17:12 | 23.8 | 52 | 13.4 | 1017.2 | 4.7 | WSW | 554 | 0.0 |
| 17.07.2025 | 17:18 | 24.1 | 53 | 13.9 | 1017.1 | 4.7 | SSW | 554 | 0.0 |
| 17.07.2025 | 17:24 | 24.2 | 51 | 13.4 | 1016.9 | 4.7 | SSW | 533 | 0.0 |
| 17.07.2025 | 17:27 | 24.3 | 52 | 13.8 | 1016.9 | 4.7 | S | 510 | 0.0 |
| 17.07.2025 | 17:33 | 24.5 | 51 | 13.7 | 1017.0 | 4.7 | N | 102 | 0.0 |
| 17.07.2025 | 17:39 | 24.3 | 51 | 13.5 | 1016.9 | 3.2 | NNO | 113 | 0.0 |
| 17.07.2025 | 17:42 | 24.2 | 52 | 13.7 | 1016.8 | 3.2 | SO | 490 | 0.0 |
| 17.07.2025 | 17:48 | 24.3 | 52 | 13.8 | 1016.8 | 3.2 | SSW | 480 | 0.0 |
| 17.07.2025 | 17:54 | 24.4 | 51 | 13.6 | 1016.8 | 6.5 | N | 432 | 0.0 |
| 17.07.2025 | 17:57 | 24.3 | 51 | 13.5 | 1016.8 | 4.7 | N | 299 | 0.0 |
| 17.07.2025 | 18:03 | 24.3 | 52 | 13.8 | 1016.7 | 3.2 | SW | 390 | 0.0 |
| 17.07.2025 | 18:09 | 24.3 | 51 | 13.5 | 1016.7 | 3.2 | SSO | 374 | 0.0 |
| 17.07.2025 | 18:12 | 24.2 | 51 | 13.4 | 1016.7 | 3.2 | NNW | 373 | 0.0 |
| 17.07.2025 | 18:18 | 24.1 | 52 | 13.6 | 1016.7 | 4.7 | NNO | 353 | 0.0 |
| 17.07.2025 | 18:24 | 24.1 | 52 | 13.6 | 1016.7 | 4.7 | S | 334 | 0.0 |
| 17.07.2025 | 18:27 | 24.2 | 52 | 13.7 | 1016.6 | 4.7 | SSO | 327 | 0.0 |
| 17.07.2025 | 18:33 | 24.1 | 52 | 13.6 | 1016.6 | 6.5 | SO | 301 | 0.0 |
| 17.07.2025 | 18:39 | 23.9 | 53 | 13.7 | 1016.5 | 7.9 | SSO | 285 | 0.0 |
| 17.07.2025 | 18:42 | 24.2 | 52 | 13.7 | 1016.5 | 6.5 | WSW | 274 | 0.0 |
| 17.07.2025 | 18:48 | 24.2 | 52 | 13.7 | 1016.5 | 4.7 | WNW | 56 | 0.0 |
| 17.07.2025 | 18:54 | 24.1 | 53 | 13.9 | 1016.4 | 6.5 | WNW | 246 | 0.0 |
| 17.07.2025 | 18:57 | 24.2 | 53 | 14.0 | 1016.4 | 3.2 | SW | 248 | 0.0 |
| 17.07.2025 | 19:03 | 24.1 | 53 | 13.9 | 1016.4 | 1.4 | WSW | 239 | 0.0 |
| 17.07.2025 | 19:09 | 24.3 | 54 | 14.4 | 1016.4 | 1.4 | WSW | 218 | 0.0 |
| 17.07.2025 | 19:12 | 24.3 | 54 | 14.4 | 1016.4 | 1.4 | SSW | 200 | 0.0 |
| 17.07.2025 | 19:18 | 24.3 | 52 | 13.8 | 1016.4 | 1.4 | WNW | 179 | 0.0 |
| 17.07.2025 | 19:24 | 24.5 | 52 | 14.0 | 1016.3 | 1.4 | NNW | 156 | 0.0 |
| 17.07.2025 | 19:27 | 24.4 | 53 | 14.2 | 1016.4 | 1.4 | W | 104 | 0.0 |
| 17.07.2025 | 19:33 | 24.1 | 53 | 13.9 | 1016.3 | 1.4 | SW | 40 | 0.0 |
| 17.07.2025 | 19:39 | 23.4 | 57 | 14.4 | 1016.4 | 1.4 | WNW | 33 | 0.0 |
| 17.07.2025 | 19:42 | 23.1 | 57 | 14.1 | 1016.3 | 1.4 | SSW | 32 | 0.0 |
| 17.07.2025 | 19:48 | 22.7 | 59 | 14.3 | 1016.4 | 1.4 | S | 30 | 0.0 |
| 17.07.2025 | 19:54 | 22.2 | 61 | 14.3 | 1016.3 | 1.4 | SW | 28 | 0.0 |
| 17.07.2025 | 19:57 | 22.0 | 63 | 14.6 | 1016.3 | 1.4 | SSW | 28 | 0.0 |
| 17.07.2025 | 20:03 | 21.7 | 65 | 14.8 | 1016.4 | 1.4 | SSW | 26 | 0.0 |
| 17.07.2025 | 20:09 | 21.3 | 66 | 14.7 | 1016.4 | 1.4 | SSW | 25 | 0.0 |
| 17.07.2025 | 20:12 | 21.2 | 67 | 14.8 | 1016.3 | 1.4 | SSW | 25 | 0.0 |
| 17.07.2025 | 20:18 | 20.8 | 68 | 14.7 | 1016.4 | 1.4 | SSW | 23 | 0.0 |
| 17.07.2025 | 20:24 | 20.6 | 68 | 14.5 | 1016.4 | 1.4 | S | 21 | 0.0 |
| 17.07.2025 | 20:27 | 20.6 | 68 | 14.5 | 1016.3 | 1.4 | S | 21 | 0.0 |
| 17.07.2025 | 20:33 | 20.3 | 69 | 14.4 | 1016.4 | 1.4 | S | 19 | 0.0 |
| 17.07.2025 | 20:39 | 20.2 | 70 | 14.6 | 1016.4 | 1.4 | WSW | 18 | 0.0 |
| 17.07.2025 | 20:42 | 20.1 | 71 | 14.7 | 1016.4 | 0.0 | WSW | 18 | 0.0 |
| 17.07.2025 | 20:48 | 19.9 | 71 | 14.5 | 1016.3 | 0.0 | SW | 16 | 0.0 |
| 17.07.2025 | 20:54 | 19.7 | 72 | 14.5 | 1016.4 | 0.0 | SW | 16 | 0.0 |
| 17.07.2025 | 20:57 | 19.6 | 73 | 14.6 | 1016.3 | 0.0 | SSW | 14 | 0.0 |
| 17.07.2025 | 21:03 | 19.2 | 74 | 14.5 | 1016.4 | 0.0 | SSW | 12 | 0.0 |
| 17.07.2025 | 21:09 | 19.0 | 75 | 14.5 | 1016.4 | 0.0 | SSW | 11 | 0.0 |
| 17.07.2025 | 21:12 | 18.8 | 75 | 14.3 | 1016.5 | 0.0 | SSW | 9 | 0.0 |
| 17.07.2025 | 21:18 | 18.6 | 76 | 14.3 | 1016.5 | 1.4 | S | 7 | 0.0 |
| 17.07.2025 | 21:24 | 18.3 | 77 | 14.2 | 1016.4 | 1.4 | S | 5 | 0.0 |
| 17.07.2025 | 21:27 | 18.2 | 77 | 14.1 | 1016.5 | 0.0 | S | 5 | 0.0 |
| 17.07.2025 | 21:33 | 18.1 | 78 | 14.2 | 1016.5 | 0.0 | S | 0 | 0.0 |
| 17.07.2025 | 21:39 | 17.8 | 78 | 13.9 | 1016.6 | 1.4 | S | 0 | 0.0 |
| 17.07.2025 | 21:42 | 17.7 | 79 | 14.0 | 1016.5 | 1.4 | S | 0 | 0.0 |
| 17.07.2025 | 21:48 | 17.5 | 79 | 13.8 | 1016.6 | 1.4 | S | 0 | 0.0 |
| 17.07.2025 | 21:54 | 17.3 | 80 | 13.8 | 1016.7 | 0.0 | S | 0 | 0.0 |
| 17.07.2025 | 21:57 | 17.2 | 80 | 13.7 | 1016.7 | 0.0 | S | 0 | 0.0 |
| 17.07.2025 | 22:03 | 16.9 | 81 | 13.6 | 1016.7 | 1.4 | S | 0 | 0.0 |
| 17.07.2025 | 22:09 | 16.7 | 81 | 13.4 | 1016.7 | 0.0 | S | 0 | 0.0 |
| 17.07.2025 | 22:12 | 16.7 | 82 | 13.6 | 1016.7 | 0.0 | S | 0 | 0.0 |
| 17.07.2025 | 22:18 | 16.4 | 82 | 13.3 | 1016.7 | 0.0 | S | 0 | 0.0 |
| 17.07.2025 | 22:24 | 16.3 | 82 | 13.2 | 1016.7 | 0.0 | S | 0 | 0.0 |
| 17.07.2025 | 22:27 | 16.3 | 82 | 13.2 | 1016.8 | 0.0 | S | 0 | 0.0 |
| 17.07.2025 | 22:33 | 16.2 | 83 | 13.3 | 1016.8 | 0.0 | S | 0 | 0.0 |
| 17.07.2025 | 22:39 | 16.1 | 83 | 13.2 | 1016.8 | 0.0 | S | 0 | 0.0 |
| 17.07.2025 | 22:42 | 16.1 | 83 | 13.2 | 1016.8 | 0.0 | S | 0 | 0.0 |
| 17.07.2025 | 22:48 | 15.9 | 83 | 13.0 | 1016.9 | 0.0 | S | 0 | 0.0 |
| 17.07.2025 | 22:54 | 15.9 | 83 | 13.0 | 1016.9 | 0.0 | S | 0 | 0.0 |
| 17.07.2025 | 22:57 | 15.8 | 84 | 13.1 | 1016.9 | 0.0 | S | 0 | 0.0 |
| 17.07.2025 | 23:03 | 15.7 | 84 | 13.0 | 1017.0 | 0.0 | S | 0 | 0.0 |
| 17.07.2025 | 23:09 | 15.7 | 84 | 13.0 | 1017.0 | 0.0 | S | 0 | 0.0 |
| 17.07.2025 | 23:12 | 15.6 | 84 | 12.9 | 1017.0 | 0.0 | S | 0 | 0.0 |
| 17.07.2025 | 23:18 | 15.4 | 84 | 12.7 | 1017.0 | 0.0 | S | 0 | 0.0 |
| 17.07.2025 | 23:24 | 15.3 | 84 | 12.6 | 1017.0 | 0.0 | SSO | 0 | 0.0 |
| 17.07.2025 | 23:27 | 15.2 | 84 | 12.5 | 1017.1 | 0.0 | SSO | 0 | 0.0 |